createdAt,value
2018-04-27T00:00:34.120Z,80.76
2018-04-27T00:06:38.613Z,81.21
2018-04-27T00:12:43.033Z,80.98
2018-04-27T00:18:47.413Z,81.40
2018-04-27T00:24:51.815Z,80.00
2018-04-27T00:30:56.934Z,79.87
2018-04-27T00:37:01.348Z,80.49
2018-04-27T00:43:05.842Z,81.18
2018-04-27T00:49:10.985Z,82.01
2018-04-27T00:55:15.387Z,82.19
2018-04-27T01:01:19.746Z,82.12
2018-04-27T01:07:24.110Z,82.23
2018-04-27T01:13:28.604Z,82.02
2018-04-27T01:19:33.015Z,81.74
2018-04-27T01:25:37.454Z,82.53
2018-04-27T01:31:41.831Z,83.00
2018-04-27T01:37:46.171Z,82.96
2018-04-27T01:43:50.861Z,83.10
2018-04-27T01:49:55.254Z,83.28
2018-04-27T01:55:59.591Z,83.47
2018-04-27T02:02:03.975Z,84.10
2018-04-27T02:08:09.153Z,83.79
2018-04-27T02:14:13.527Z,83.72
2018-04-27T02:20:18.652Z,83.96
2018-04-27T02:26:23.019Z,83.88
2018-04-27T02:32:27.440Z,83.94
2018-04-27T02:38:31.968Z,83.44
2018-04-27T02:44:37.363Z,83.82
2018-04-27T02:50:41.728Z,84.21
2018-04-27T02:56:46.906Z,85.18
2018-04-27T03:02:51.268Z,84.78
2018-04-27T03:08:55.714Z,84.66
2018-04-27T03:15:00.080Z,84.48
2018-04-27T03:21:04.720Z,84.54
2018-04-27T03:27:09.140Z,85.23
2018-04-27T03:33:13.598Z,85.78
2018-04-27T03:39:18.021Z,85.77
2018-04-27T03:45:22.473Z,85.44
2018-04-27T03:51:26.824Z,85.72
2018-04-27T03:57:31.208Z,85.30
2018-04-27T04:03:53.491Z,85.02
2018-04-27T04:09:57.860Z,84.83
2018-04-27T04:16:03.091Z,85.28
2018-04-27T04:22:07.477Z,85.25
2018-04-27T04:28:11.821Z,84.82
2018-04-27T04:34:16.199Z,84.47
2018-04-27T04:40:20.566Z,84.87
2018-04-27T04:46:24.974Z,84.62
2018-04-27T04:52:29.409Z,83.93
2018-04-27T04:58:33.762Z,83.12
2018-04-27T05:04:38.976Z,83.14
2018-04-27T05:10:43.469Z,82.59
2018-04-27T05:16:47.861Z,82.64
2018-04-27T05:22:52.241Z,82.07
2018-04-27T05:28:56.612Z,81.27
2018-04-27T05:35:01.070Z,80.42
2018-04-27T05:41:05.520Z,78.94
2018-04-27T05:47:10.700Z,78.59
2018-04-27T05:53:15.054Z,78.61
2018-04-27T05:59:20.931Z,79.82
2018-04-27T06:05:25.273Z,78.77
2018-04-27T06:11:30.398Z,79.52
2018-04-27T06:17:34.884Z,77.89
2018-04-27T06:23:39.221Z,78.03
2018-04-27T06:29:44.346Z,79.02
2018-04-27T06:35:48.695Z,75.97
2018-04-27T06:41:53.093Z,74.96
2018-04-27T06:47:57.463Z,72.77
2018-04-27T06:54:01.963Z,72.10
2018-04-27T07:00:06.516Z,70.07
2018-04-27T07:06:10.884Z,67.63
2018-04-27T07:12:15.307Z,67.01
2018-04-27T07:18:19.708Z,66.77
2018-04-27T07:24:24.160Z,65.98
2018-04-27T07:30:28.564Z,67.87
2018-04-27T07:36:33.781Z,65.45
2018-04-27T07:42:38.154Z,64.21
2018-04-27T07:48:42.558Z,62.88
2018-04-27T07:54:46.916Z,63.39
2018-04-27T08:00:51.274Z,64.37
2018-04-27T08:06:55.669Z,61.75
2018-04-27T08:13:00.091Z,60.21
2018-04-27T08:19:05.438Z,60.98
2018-04-27T08:25:09.807Z,58.51
2018-04-27T08:31:14.162Z,56.36
2018-04-27T08:37:18.512Z,56.52
2018-04-27T08:43:22.893Z,55.45
2018-04-27T08:49:27.265Z,52.50
2018-04-27T08:55:31.651Z,54.82
2018-04-27T09:01:36.206Z,51.63
2018-04-27T09:07:40.571Z,49.56
2018-04-27T09:13:44.938Z,48.44
2018-04-27T09:19:49.305Z,48.93
2018-04-27T09:25:53.678Z,46.88
2018-04-27T09:31:58.063Z,47.48
2018-04-27T09:38:02.735Z,45.52
2018-04-27T09:44:07.393Z,44.53
2018-04-27T09:50:11.785Z,45.92
2018-04-27T09:56:16.240Z,46.42
2018-04-27T10:02:21.340Z,45.20
2018-04-27T10:08:25.705Z,42.41
2018-04-27T10:14:30.077Z,39.27
2018-04-27T10:20:34.769Z,38.34
2018-04-27T10:26:39.175Z,38.48
2018-04-27T10:32:43.555Z,35.70
2018-04-27T10:38:48.009Z,36.76
2018-04-27T10:44:52.465Z,32.14
2018-04-27T10:50:56.815Z,36.00
2018-04-27T10:57:02.047Z,34.55
2018-04-27T11:03:06.689Z,30.80
2018-04-27T11:09:11.068Z,32.01
2018-04-27T11:15:16.201Z,32.24
2018-04-27T11:21:20.565Z,33.73
2018-04-27T11:27:25.022Z,30.34
2018-04-27T11:33:30.150Z,34.17
2018-04-27T11:39:35.103Z,31.67
2018-04-27T11:45:39.615Z,32.06
2018-04-27T11:51:43.970Z,33.69
2018-04-27T11:57:48.447Z,33.73
2018-04-27T12:03:52.808Z,32.81
2018-04-27T12:09:58.030Z,32.88
2018-04-27T12:16:02.812Z,32.94
2018-04-27T12:22:07.291Z,30.08
2018-04-27T12:28:11.747Z,32.05
2018-04-27T12:34:16.124Z,30.94
2018-04-27T12:40:20.498Z,31.40
2018-04-27T12:46:24.872Z,31.85
2018-04-27T12:52:29.270Z,33.47
2018-04-27T12:58:33.648Z,34.60
2018-04-27T13:04:38.098Z,29.72
2018-04-27T13:10:42.445Z,29.69
2018-04-27T13:16:47.655Z,31.77
2018-04-27T13:22:52.857Z,26.79
2018-04-27T13:28:57.230Z,29.85
2018-04-27T13:35:01.627Z,24.69
2018-04-27T13:41:06.133Z,26.52
2018-04-27T13:47:11.295Z,24.98
2018-04-27T13:53:15.760Z,29.08
2018-04-27T13:59:20.141Z,27.44
2018-04-27T14:05:24.630Z,27.32
2018-04-27T14:11:28.987Z,28.81
2018-04-27T14:17:33.903Z,29.25
2018-04-27T14:23:38.282Z,26.13
2018-04-27T14:29:42.629Z,23.83
2018-04-27T14:35:46.996Z,27.34
2018-04-27T14:41:52.208Z,28.62
2018-04-27T14:47:56.564Z,28.25
2018-04-27T14:54:00.963Z,31.38
2018-04-27T15:00:05.546Z,30.26
2018-04-27T15:06:09.908Z,27.48
2018-04-27T15:12:14.256Z,24.50
2018-04-27T15:18:20.270Z,23.64
2018-04-27T15:24:24.674Z,24.08
2018-04-27T15:30:29.036Z,21.90
2018-04-27T15:36:34.257Z,20.48
2018-04-27T15:42:38.731Z,19.28
2018-04-27T15:48:43.189Z,18.98
2018-04-27T15:54:47.564Z,19.83
2018-04-27T16:00:51.952Z,21.51
2018-04-27T16:06:56.320Z,19.85
2018-04-27T16:30:04.947Z,19.40
2018-04-27T16:36:09.466Z,19.01
2018-04-27T16:42:13.845Z,18.99
2018-04-27T16:48:18.378Z,18.97
2018-04-27T16:54:22.799Z,18.92
2018-04-27T17:00:27.179Z,20.43
2018-04-27T17:06:31.535Z,20.54
2018-04-27T17:12:36.771Z,22.30
2018-04-27T17:18:41.207Z,22.77
2018-04-27T17:24:45.689Z,22.96
2018-04-27T17:30:50.820Z,24.04
2018-04-27T17:36:55.311Z,27.90
2018-04-27T17:42:59.638Z,28.73
2018-04-27T17:49:04.043Z,29.76
2018-04-27T17:55:08.435Z,34.75
2018-04-27T18:01:12.856Z,38.89
2018-04-27T18:07:18.004Z,40.27
2018-04-27T18:13:22.360Z,42.22
2018-04-27T18:19:26.706Z,43.51
2018-04-27T18:25:31.124Z,47.91
2018-04-27T18:31:35.636Z,49.46
2018-04-27T18:37:39.994Z,52.12
2018-04-27T18:43:44.364Z,53.62
2018-04-27T18:49:48.731Z,53.00
2018-04-27T18:55:53.876Z,51.76
2018-04-27T19:01:58.271Z,50.83
2018-04-27T19:08:02.632Z,50.83
2018-04-27T19:14:07.231Z,51.61
2018-04-27T19:20:11.634Z,54.25
2018-04-27T19:26:16.069Z,55.27
2018-04-27T19:32:20.502Z,54.49
2018-04-27T19:38:25.678Z,50.75
2018-04-27T19:44:30.162Z,51.91
2018-04-27T19:50:36.556Z,53.23
2018-04-27T19:56:40.975Z,54.85
2018-04-27T20:02:45.370Z,55.95
2018-04-27T20:08:49.777Z,56.50
2018-04-27T20:14:54.175Z,56.47
2018-04-27T20:21:01.163Z,56.75
2018-04-27T20:27:06.241Z,57.43
2018-04-27T20:33:13.367Z,56.76
2018-04-27T20:39:17.746Z,58.91
2018-04-27T20:45:24.766Z,58.21
2018-04-27T20:51:29.180Z,59.28
2018-04-27T20:57:33.621Z,58.58
2018-04-27T21:03:38.503Z,59.01
2018-04-27T21:09:42.903Z,57.88
2018-04-27T21:15:48.551Z,59.31
2018-04-27T21:21:52.993Z,58.68
2018-04-27T21:27:57.413Z,59.35
2018-04-27T21:34:02.286Z,59.27
2018-04-27T21:40:07.458Z,60.38
2018-04-27T21:46:12.575Z,61.26
2018-04-27T21:52:17.778Z,61.62
2018-04-27T21:58:26.751Z,61.84
2018-04-27T22:04:31.131Z,62.10
2018-04-27T22:10:36.482Z,61.91
2018-04-27T22:16:43.562Z,61.06
2018-04-27T22:22:47.986Z,61.02
2018-04-27T22:28:53.328Z,61.62
2018-04-27T22:41:35.061Z,62.21
2018-04-27T22:54:46.564Z,63.25
2018-04-27T23:00:55.782Z,64.41
2018-04-27T23:07:02.189Z,65.52
2018-04-27T23:13:08.633Z,65.66
2018-04-27T23:19:14.285Z,64.70
2018-04-27T23:25:25.272Z,64.72
2018-04-27T23:31:33.971Z,65.40
2018-04-27T23:37:40.634Z,66.20
2018-04-27T23:50:10.024Z,66.61
2018-04-27T23:56:15.098Z,67.02
